sensor_id;sensor_type;location;lat;lon;timestamp;pressure;altitude;pressure_sealevel;temperature;humidity
15568;BME280;7885;42.596;23.044;2023-05-07T00:00:35;93171.75;;;10.77;89.75
15568;BME280;7885;42.596;23.044;2023-05-07T00:03:01;93181.06;;;10.83;91.15
15568;BME280;7885;42.596;23.044;2023-05-07T00:05:29;93173.31;;;10.89;87.14
15568;BME280;7885;42.596;23.044;2023-05-07T00:07:55;93171.75;;;10.81;84.32
15568;BME280;7885;42.596;23.044;2023-05-07T00:10:22;93177.56;;;10.76;85.34
15568;BME280;7885;42.596;23.044;2023-05-07T00:12:49;93163.56;;;10.59;88.28
15568;BME280;7885;42.596;23.044;2023-05-07T00:15:17;93174.09;;;10.68;88.23
15568;BME280;7885;42.596;23.044;2023-05-07T00:17:44;93175.63;;;10.65;87.80
15568;BME280;7885;42.596;23.044;2023-05-07T00:20:11;93180.31;;;10.65;86.51
15568;BME280;7885;42.596;23.044;2023-05-07T00:22:38;93177.94;;;10.60;86.92
15568;BME280;7885;42.596;23.044;2023-05-07T00:25:05;93166.28;;;10.49;86.32
15568;BME280;7885;42.596;23.044;2023-05-07T00:27:32;93181.81;;;10.52;88.04
15568;BME280;7885;42.596;23.044;2023-05-07T00:29:59;93166.25;;;10.38;88.84
15568;BME280;7885;42.596;23.044;2023-05-07T00:32:27;93180.28;;;10.47;89.12
15568;BME280;7885;42.596;23.044;2023-05-07T00:34:54;93184.94;;;10.40;87.25
15568;BME280;7885;42.596;23.044;2023-05-07T00:37:20;93174.41;;;10.35;89.60
15568;BME280;7885;42.596;23.044;2023-05-07T00:39:47;93172.88;;;10.37;88.39
15568;BME280;7885;42.596;23.044;2023-05-07T00:42:14;93176.38;;;10.27;88.48
15568;BME280;7885;42.596;23.044;2023-05-07T00:44:41;93164.69;;;10.20;88.51
15568;BME280;7885;42.596;23.044;2023-05-07T00:47:08;93166.22;;;10.24;90.09
15568;BME280;7885;42.596;23.044;2023-05-07T00:49:38;93163.13;;;10.26;89.17
15568;BME280;7885;42.596;23.044;2023-05-07T00:52:06;93172.44;;;10.25;87.84
15568;BME280;7885;42.596;23.044;2023-05-07T00:54:34;93162.34;;;10.25;86.52
15568;BME280;7885;42.596;23.044;2023-05-07T00:57:02;93163.13;;;10.15;86.13
15568;BME280;7885;42.596;23.044;2023-05-07T00:59:30;93172.06;;;10.16;85.38
15568;BME280;7885;42.596;23.044;2023-05-07T01:01:57;93187.19;;;10.13;84.81
15568;BME280;7885;42.596;23.044;2023-05-07T01:04:23;93177.44;;;10.05;85.93
15568;BME280;7885;42.596;23.044;2023-05-07T01:06:52;93173.13;;;9.97;87.37
15568;BME280;7885;42.596;23.044;2023-05-07T01:09:21;93176.22;;;9.92;89.11
15568;BME280;7885;42.596;23.044;2023-05-07T01:11:49;93168.84;;;9.89;90.59
15568;BME280;7885;42.596;23.044;2023-05-07T01:14:17;93174.28;;;9.89;91.52
15568;BME280;7885;42.596;23.044;2023-05-07T01:16:44;93167.66;;;9.90;91.61
15568;BME280;7885;42.596;23.044;2023-05-07T01:19:12;93162.63;;;9.88;93.16
15568;BME280;7885;42.596;23.044;2023-05-07T01:21:45;93164.94;;;9.83;94.11
15568;BME280;7885;42.596;23.044;2023-05-07T01:24:14;93167.66;;;9.90;94.17
15568;BME280;7885;42.596;23.044;2023-05-07T01:26:42;93164.97;;;9.93;94.36
15568;BME280;7885;42.596;23.044;2023-05-07T01:29:08;93166.16;;;9.96;94.29
15568;BME280;7885;42.596;23.044;2023-05-07T01:31:36;93159.16;;;9.95;92.98
15568;BME280;7885;42.596;23.044;2023-05-07T01:34:04;93167.69;;;10.00;91.61
15568;BME280;7885;42.596;23.044;2023-05-07T01:36:34;93166.91;;;10.00;87.93
15568;BME280;7885;42.596;23.044;2023-05-07T01:39:03;93179.75;;;9.92;88.69
15568;BME280;7885;42.596;23.044;2023-05-07T01:41:32;93173.88;;;9.87;88.23
15568;BME280;7885;42.596;23.044;2023-05-07T01:43:59;93168.44;;;9.87;88.77
15568;BME280;7885;42.596;23.044;2023-05-07T01:46:26;93171.16;;;9.83;89.00
15568;BME280;7885;42.596;23.044;2023-05-07T01:48:54;93171.53;;;9.82;90.47
15568;BME280;7885;42.596;23.044;2023-05-07T01:51:21;93169.19;;;9.77;91.67
15568;BME280;7885;42.596;23.044;2023-05-07T01:53:48;93164.50;;;9.70;92.26
15568;BME280;7885;42.596;23.044;2023-05-07T01:56:16;93166.09;;;9.78;91.94
15568;BME280;7885;42.596;23.044;2023-05-07T01:58:45;93166.88;;;9.75;91.57
15568;BME280;7885;42.596;23.044;2023-05-07T02:01:12;93145.09;;;9.72;92.14
15568;BME280;7885;42.596;23.044;2023-05-07T02:03:39;93153.66;;;9.81;88.73
15568;BME280;7885;42.596;23.044;2023-05-07T02:06:06;93152.06;;;9.73;86.21
15568;BME280;7885;42.596;23.044;2023-05-07T02:08:33;93135.72;;;9.51;88.84
15568;BME280;7885;42.596;23.044;2023-05-07T02:11:00;93139.19;;;9.55;91.38
15568;BME280;7885;42.596;23.044;2023-05-07T02:13:29;93145.06;;;9.57;91.44
15568;BME280;7885;42.596;23.044;2023-05-07T02:15:57;93140.34;;;9.47;91.21
15568;BME280;7885;42.596;23.044;2023-05-07T02:18:24;93138.00;;;9.42;89.57
15568;BME280;7885;42.596;23.044;2023-05-07T02:20:51;93142.59;;;9.35;88.02
15568;BME280;7885;42.596;23.044;2023-05-07T02:23:17;93142.56;;;9.28;88.95
15568;BME280;7885;42.596;23.044;2023-05-07T02:25:44;93144.06;;;9.18;91.85
15568;BME280;7885;42.596;23.044;2023-05-07T02:28:11;93136.34;;;9.20;93.79
15568;BME280;7885;42.596;23.044;2023-05-07T02:30:38;93122.31;;;9.11;94.92
15568;BME280;7885;42.596;23.044;2023-05-07T02:33:06;93134.00;;;9.22;93.58
15568;BME280;7885;42.596;23.044;2023-05-07T02:35:33;93134.41;;;9.24;95.23
15568;BME280;7885;42.596;23.044;2023-05-07T02:38:00;93137.53;;;9.26;93.57
15568;BME280;7885;42.596;23.044;2023-05-07T02:40:27;93142.59;;;9.31;89.77
15568;BME280;7885;42.596;23.044;2023-05-07T02:42:54;93142.16;;;9.22;88.39
15568;BME280;7885;42.596;23.044;2023-05-07T02:45:20;93144.88;;;9.22;90.58
15568;BME280;7885;42.596;23.044;2023-05-07T02:47:47;93135.53;;;9.16;89.38
15568;BME280;7885;42.596;23.044;2023-05-07T02:50:15;93143.69;;;9.16;89.70
15568;BME280;7885;42.596;23.044;2023-05-07T02:52:42;93130.06;;;9.09;92.33
15568;BME280;7885;42.596;23.044;2023-05-07T02:55:09;93137.78;;;9.03;94.86
15568;BME280;7885;42.596;23.044;2023-05-07T02:57:36;93128.81;;;8.92;94.50
15568;BME280;7885;42.596;23.044;2023-05-07T03:00:11;93126.47;;;8.91;93.35
15568;BME280;7885;42.596;23.044;2023-05-07T03:02:38;93142.50;;;9.10;96.32
15568;BME280;7885;42.596;23.044;2023-05-07T03:05:06;93141.72;;;9.13;95.92
15568;BME280;7885;42.596;23.044;2023-05-07T03:07:34;93143.25;;;9.10;91.78
15568;BME280;7885;42.596;23.044;2023-05-07T03:10:01;93147.13;;;9.06;91.13
15568;BME280;7885;42.596;23.044;2023-05-07T03:12:28;93138.53;;;9.00;92.33
15568;BME280;7885;42.596;23.044;2023-05-07T03:14:55;93152.47;;;8.92;94.00
15568;BME280;7885;42.596;23.044;2023-05-07T03:17:22;93145.47;;;8.94;95.20
15568;BME280;7885;42.596;23.044;2023-05-07T03:19:48;93153.59;;;8.91;91.04
15568;BME280;7885;42.596;23.044;2023-05-07T03:22:15;93152.75;;;8.80;91.78
15568;BME280;7885;42.596;23.044;2023-05-07T03:24:43;93157.03;;;8.84;93.25
15568;BME280;7885;42.596;23.044;2023-05-07T03:27:10;93162.50;;;8.88;92.16
15568;BME280;7885;42.596;23.044;2023-05-07T03:29:37;93170.63;;;8.84;91.54
15568;BME280;7885;42.596;23.044;2023-05-07T03:32:04;93171.75;;;8.83;91.85
15568;BME280;7885;42.596;23.044;2023-05-07T03:34:31;93177.97;;;8.84;91.75
15568;BME280;7885;42.596;23.044;2023-05-07T03:36:57;93168.69;;;8.85;93.55
15568;BME280;7885;42.596;23.044;2023-05-07T03:39:24;93162.78;;;8.76;94.72
15568;BME280;7885;42.596;23.044;2023-05-07T03:41:52;93176.03;;;8.84;95.54
15568;BME280;7885;42.596;23.044;2023-05-07T03:44:19;93183.47;;;8.91;94.84
15568;BME280;7885;42.596;23.044;2023-05-07T03:46:46;93182.75;;;9.01;94.65
15568;BME280;7885;42.596;23.044;2023-05-07T03:49:13;93191.38;;;9.10;94.77
15568;BME280;7885;42.596;23.044;2023-05-07T03:51:39;93190.19;;;9.11;92.16
15568;BME280;7885;42.596;23.044;2023-05-07T03:54:06;93182.03;;;9.11;93.46
15568;BME280;7885;42.596;23.044;2023-05-07T03:56:33;93182.03;;;9.11;95.46
15568;BME280;7885;42.596;23.044;2023-05-07T03:59:01;93189.81;;;9.12;96.57
15568;BME280;7885;42.596;23.044;2023-05-07T04:01:28;93177.38;;;9.08;96.31
15568;BME280;7885;42.596;23.044;2023-05-07T04:03:55;93193.72;;;9.19;96.48
15568;BME280;7885;42.596;23.044;2023-05-07T04:06:22;93183.69;;;9.26;96.83
15568;BME280;7885;42.596;23.044;2023-05-07T04:08:48;93204.69;;;9.36;95.74
15568;BME280;7885;42.596;23.044;2023-05-07T04:11:15;93206.66;;;9.39;95.96
15568;BME280;7885;42.596;23.044;2023-05-07T04:13:42;93207.03;;;9.41;95.56
15568;BME280;7885;42.596;23.044;2023-05-07T04:16:10;93214.13;;;9.56;95.00
15568;BME280;7885;42.596;23.044;2023-05-07T04:18:36;93213.38;;;9.63;95.02
15568;BME280;7885;42.596;23.044;2023-05-07T04:21:03;93220.44;;;9.75;95.19
15568;BME280;7885;42.596;23.044;2023-05-07T04:23:30;93221.25;;;9.82;94.78
15568;BME280;7885;42.596;23.044;2023-05-07T04:25:57;93222.81;;;9.90;94.61
15568;BME280;7885;42.596;23.044;2023-05-07T04:28:23;93228.31;;;10.01;94.29
15568;BME280;7885;42.596;23.044;2023-05-07T04:30:51;93234.19;;;10.10;93.99
15568;BME280;7885;42.596;23.044;2023-05-07T04:33:19;93230.75;;;10.20;93.82
15568;BME280;7885;42.596;23.044;2023-05-07T04:35:45;93240.88;;;10.30;93.20
15568;BME280;7885;42.596;23.044;2023-05-07T04:38:12;93242.84;;;10.37;93.11
15568;BME280;7885;42.596;23.044;2023-05-07T04:40:39;93235.06;;;10.46;93.09
15568;BME280;7885;42.596;23.044;2023-05-07T04:43:06;93239.75;;;10.56;92.16
15568;BME280;7885;42.596;23.044;2023-05-07T04:45:34;93227.72;;;10.57;91.46
15568;BME280;7885;42.596;23.044;2023-05-07T04:48:01;93243.28;;;10.71;90.87
15568;BME280;7885;42.596;23.044;2023-05-07T04:50:29;93233.97;;;10.75;90.83
15568;BME280;7885;42.596;23.044;2023-05-07T04:52:55;93244.88;;;10.79;90.56
15568;BME280;7885;42.596;23.044;2023-05-07T04:55:22;93242.53;;;10.77;90.71
15568;BME280;7885;42.596;23.044;2023-05-07T04:57:49;93244.88;;;10.82;91.34
15568;BME280;7885;42.596;23.044;2023-05-07T05:00:16;93246.41;;;10.94;91.74
15568;BME280;7885;42.596;23.044;2023-05-07T05:02:44;93249.94;;;11.05;91.25
15568;BME280;7885;42.596;23.044;2023-05-07T05:05:11;93245.28;;;11.16;90.30
15568;BME280;7885;42.596;23.044;2023-05-07T05:07:39;93244.06;;;11.31;90.42
15568;BME280;7885;42.596;23.044;2023-05-07T05:10:06;93237.09;;;11.37;90.02
15568;BME280;7885;42.596;23.044;2023-05-07T05:12:33;93252.22;;;11.52;90.23
15568;BME280;7885;42.596;23.044;2023-05-07T05:15:00;93251.84;;;11.61;89.62
15568;BME280;7885;42.596;23.044;2023-05-07T05:17:26;93243.25;;;11.70;88.86
15568;BME280;7885;42.596;23.044;2023-05-07T05:19:53;93249.50;;;11.74;89.09
15568;BME280;7885;42.596;23.044;2023-05-07T05:22:20;93250.25;;;11.81;89.10
15568;BME280;7885;42.596;23.044;2023-05-07T05:24:48;93249.09;;;11.86;89.24
15568;BME280;7885;42.596;23.044;2023-05-07T05:27:14;93248.69;;;11.91;89.31
15568;BME280;7885;42.596;23.044;2023-05-07T05:29:41;93244.00;;;11.95;88.87
15568;BME280;7885;42.596;23.044;2023-05-07T05:32:08;93252.94;;;12.06;89.15
15568;BME280;7885;42.596;23.044;2023-05-07T05:34:35;93242.38;;;12.08;89.25
15568;BME280;7885;42.596;23.044;2023-05-07T05:37:02;93236.91;;;12.11;89.53
15568;BME280;7885;42.596;23.044;2023-05-07T05:39:28;93244.69;;;12.24;89.43
15568;BME280;7885;42.596;23.044;2023-05-07T05:41:57;93241.47;;;12.39;89.59
15568;BME280;7885;42.596;23.044;2023-05-07T05:44:24;93249.97;;;12.55;89.96
15568;BME280;7885;42.596;23.044;2023-05-07T05:46:50;93255.34;;;12.70;88.40
15568;BME280;7885;42.596;23.044;2023-05-07T05:49:19;93251.38;;;12.85;88.23
15568;BME280;7885;42.596;23.044;2023-05-07T05:51:46;93249.69;;;12.98;87.14
15568;BME280;7885;42.596;23.044;2023-05-07T05:54:13;93252.00;;;13.10;86.89
15568;BME280;7885;42.596;23.044;2023-05-07T05:56:41;93252.69;;;13.21;85.85
15568;BME280;7885;42.596;23.044;2023-05-07T05:59:09;93254.88;;;13.40;86.11
15568;BME280;7885;42.596;23.044;2023-05-07T06:01:36;93257.09;;;13.52;85.10
15568;BME280;7885;42.596;23.044;2023-05-07T06:04:03;93248.00;;;13.66;83.76
15568;BME280;7885;42.596;23.044;2023-05-07T06:06:30;93216.47;;;13.54;83.82
15568;BME280;7885;42.596;23.044;2023-05-07T06:08:57;93245.09;;;13.84;83.55
15568;BME280;7885;42.596;23.044;2023-05-07T06:11:24;93258.53;;;14.05;82.17
15568;BME280;7885;42.596;23.044;2023-05-07T06:13:51;93254.94;;;14.11;81.33
15568;BME280;7885;42.596;23.044;2023-05-07T06:16:19;93254.88;;;14.18;81.25
15568;BME280;7885;42.596;23.044;2023-05-07T06:18:45;93251.66;;;14.27;79.91
15568;BME280;7885;42.596;23.044;2023-05-07T06:21:13;93255.47;;;14.37;80.97
15568;BME280;7885;42.596;23.044;2023-05-07T06:23:40;93243.38;;;14.34;80.06
15568;BME280;7885;42.596;23.044;2023-05-07T06:26:07;93242.84;;;14.46;79.34
15568;BME280;7885;42.596;23.044;2023-05-07T06:28:34;93234.06;;;14.58;80.32
15568;BME280;7885;42.596;23.044;2023-05-07T06:31:11;93242.97;;;14.66;79.80
15568;BME280;7885;42.596;23.044;2023-05-07T06:33:39;93243.28;;;14.72;78.02
15568;BME280;7885;42.596;23.044;2023-05-07T06:36:06;93238.16;;;14.74;77.57
15568;BME280;7885;42.596;23.044;2023-05-07T06:38:33;93240.47;;;14.79;76.96
15568;BME280;7885;42.596;23.044;2023-05-07T06:41:00;93245.38;;;14.91;78.65
15568;BME280;7885;42.596;23.044;2023-05-07T06:43:26;93230.63;;;15.08;76.74
15568;BME280;7885;42.596;23.044;2023-05-07T06:45:53;93226.94;;;15.18;76.29
15568;BME280;7885;42.596;23.044;2023-05-07T06:48:20;93229.81;;;15.34;76.19
15568;BME280;7885;42.596;23.044;2023-05-07T06:50:48;93231.16;;;15.49;74.73
15568;BME280;7885;42.596;23.044;2023-05-07T06:53:15;93229.44;;;15.59;75.16
15568;BME280;7885;42.596;23.044;2023-05-07T06:55:41;93227.63;;;15.72;73.99
15568;BME280;7885;42.596;23.044;2023-05-07T06:58:08;93228.16;;;15.87;73.33
15568;BME280;7885;42.596;23.044;2023-05-07T07:00:35;93229.53;;;15.98;72.57
15568;BME280;7885;42.596;23.044;2023-05-07T07:03:02;93222.41;;;16.01;71.94
15568;BME280;7885;42.596;23.044;2023-05-07T07:05:28;93221.44;;;16.11;71.90
15568;BME280;7885;42.596;23.044;2023-05-07T07:07:56;93229.75;;;16.27;71.10
15568;BME280;7885;42.596;23.044;2023-05-07T07:10:23;93227.56;;;16.38;70.42
15568;BME280;7885;42.596;23.044;2023-05-07T07:12:50;93213.25;;;16.47;71.71
15568;BME280;7885;42.596;23.044;2023-05-07T07:15:19;93226.03;;;16.57;68.97
15568;BME280;7885;42.596;23.044;2023-05-07T07:17:46;93231.78;;;16.62;67.68
15568;BME280;7885;42.596;23.044;2023-05-07T07:20:13;93231.31;;;16.67;68.31
15568;BME280;7885;42.596;23.044;2023-05-07T07:22:39;93226.66;;;16.64;68.87
15568;BME280;7885;42.596;23.044;2023-05-07T07:25:08;93220.81;;;16.62;69.51
15568;BME280;7885;42.596;23.044;2023-05-07T07:27:36;93213.19;;;16.70;67.06
15568;BME280;7885;42.596;23.044;2023-05-07T07:30:04;93216.91;;;16.80;67.63
15568;BME280;7885;42.596;23.044;2023-05-07T07:32:34;93211.25;;;16.87;66.99
15568;BME280;7885;42.596;23.044;2023-05-07T07:35:01;93222.44;;;16.96;67.44
15568;BME280;7885;42.596;23.044;2023-05-07T07:37:27;93227.44;;;17.01;66.43
15568;BME280;7885;42.596;23.044;2023-05-07T07:39:55;93224.88;;;17.10;67.91
15568;BME280;7885;42.596;23.044;2023-05-07T07:42:23;93229.09;;;17.31;67.44
15568;BME280;7885;42.596;23.044;2023-05-07T07:44:50;93233.22;;;17.55;65.69
15568;BME280;7885;42.596;23.044;2023-05-07T07:47:16;93234.91;;;17.69;63.85
15568;BME280;7885;42.596;23.044;2023-05-07T07:49:43;93230.06;;;17.89;64.90
15568;BME280;7885;42.596;23.044;2023-05-07T07:52:10;93235.66;;;18.14;65.27
15568;BME280;7885;42.596;23.044;2023-05-07T07:54:37;93243.16;;;18.42;63.26
15568;BME280;7885;42.596;23.044;2023-05-07T07:57:03;93242.19;;;18.65;62.34
15568;BME280;7885;42.596;23.044;2023-05-07T07:59:31;93247.88;;;19.12;60.32
15568;BME280;7885;42.596;23.044;2023-05-07T08:01:58;93242.81;;;19.48;58.02
15568;BME280;7885;42.596;23.044;2023-05-07T08:04:25;93233.06;;;19.82;57.61
15568;BME280;7885;42.596;23.044;2023-05-07T08:06:51;93234.06;;;20.22;56.36
15568;BME280;7885;42.596;23.044;2023-05-07T08:09:19;93224.28;;;20.43;55.17
15568;BME280;7885;42.596;23.044;2023-05-07T08:11:46;93236.56;;;20.63;54.98
15568;BME280;7885;42.596;23.044;2023-05-07T08:14:13;93228.06;;;20.80;54.64
15568;BME280;7885;42.596;23.044;2023-05-07T08:16:42;93215.63;;;21.06;53.86
15568;BME280;7885;42.596;23.044;2023-05-07T08:19:09;93224.13;;;21.51;53.91
15568;BME280;7885;42.596;23.044;2023-05-07T08:21:38;93206.69;;;21.82;51.74
15568;BME280;7885;42.596;23.044;2023-05-07T08:24:05;93213.09;;;22.09;52.24
15568;BME280;7885;42.596;23.044;2023-05-07T08:26:32;93211.88;;;22.47;51.15
15568;BME280;7885;42.596;23.044;2023-05-07T08:28:59;93193.53;;;22.31;50.17
15568;BME280;7885;42.596;23.044;2023-05-07T08:31:25;93211.06;;;22.55;49.41
15568;BME280;7885;42.596;23.044;2023-05-07T08:33:53;93201.84;;;22.40;49.51
15568;BME280;7885;42.596;23.044;2023-05-07T08:36:20;93206.78;;;22.36;50.06
15568;BME280;7885;42.596;23.044;2023-05-07T08:38:47;93200.59;;;22.59;47.70
15568;BME280;7885;42.596;23.044;2023-05-07T08:41:15;93196.59;;;22.51;48.70
15568;BME280;7885;42.596;23.044;2023-05-07T08:43:47;93193.81;;;22.60;49.88
15568;BME280;7885;42.596;23.044;2023-05-07T08:46:17;93201.22;;;22.73;51.63
15568;BME280;7885;42.596;23.044;2023-05-07T08:48:44;93191.66;;;22.74;47.79
15568;BME280;7885;42.596;23.044;2023-05-07T08:51:15;93176.25;;;22.63;48.75
15568;BME280;7885;42.596;23.044;2023-05-07T08:53:42;93189.50;;;22.78;48.91
15568;BME280;7885;42.596;23.044;2023-05-07T08:56:09;93194.34;;;23.10;50.06
15568;BME280;7885;42.596;23.044;2023-05-07T08:58:36;93190.34;;;23.11;47.58
15568;BME280;7885;42.596;23.044;2023-05-07T09:01:07;93188.41;;;23.35;47.32
15568;BME280;7885;42.596;23.044;2023-05-07T09:03:34;93178.19;;;23.50;45.49
15568;BME280;7885;42.596;23.044;2023-05-07T09:06:01;93190.50;;;23.58;46.25
15568;BME280;7885;42.596;23.044;2023-05-07T09:08:29;93182.63;;;23.57;45.15
15568;BME280;7885;42.596;23.044;2023-05-07T09:10:56;93180.94;;;23.59;47.06
15568;BME280;7885;42.596;23.044;2023-05-07T09:13:22;93184.56;;;23.75;45.91
15568;BME280;7885;42.596;23.044;2023-05-07T09:15:50;93183.78;;;23.74;44.03
15568;BME280;7885;42.596;23.044;2023-05-07T09:18:16;93179.28;;;23.77;43.71
15568;BME280;7885;42.596;23.044;2023-05-07T09:20:43;93176.53;;;23.44;45.99
15568;BME280;7885;42.596;23.044;2023-05-07T09:23:10;93179.78;;;23.75;45.22
15568;BME280;7885;42.596;23.044;2023-05-07T09:25:38;93180.31;;;24.12;44.60
15568;BME280;7885;42.596;23.044;2023-05-07T09:28:05;93180.44;;;24.56;42.69
15568;BME280;7885;42.596;23.044;2023-05-07T09:30:33;93175.53;;;24.12;41.31
15568;BME280;7885;42.596;23.044;2023-05-07T09:33:02;93183.50;;;24.43;42.98
15568;BME280;7885;42.596;23.044;2023-05-07T09:35:29;93173.59;;;24.42;40.29
15568;BME280;7885;42.596;23.044;2023-05-07T09:37:58;93168.59;;;24.32;37.76
15568;BME280;7885;42.596;23.044;2023-05-07T09:40:27;93162.69;;;24.53;36.60
15568;BME280;7885;42.596;23.044;2023-05-07T09:42:56;93160.84;;;24.89;35.82
15568;BME280;7885;42.596;23.044;2023-05-07T09:45:22;93158.06;;;24.89;35.37
15568;BME280;7885;42.596;23.044;2023-05-07T09:47:54;93136.44;;;24.31;35.18
15568;BME280;7885;42.596;23.044;2023-05-07T09:50:23;93145.44;;;24.79;35.98
15568;BME280;7885;42.596;23.044;2023-05-07T09:52:53;93147.66;;;25.04;38.01
15568;BME280;7885;42.596;23.044;2023-05-07T09:55:21;93145.72;;;25.39;37.08
15568;BME280;7885;42.596;23.044;2023-05-07T09:57:50;93142.38;;;25.70;37.21
15568;BME280;7885;42.596;23.044;2023-05-07T10:00:19;93140.59;;;25.87;35.40
15568;BME280;7885;42.596;23.044;2023-05-07T10:02:46;93138.66;;;25.93;34.22
15568;BME280;7885;42.596;23.044;2023-05-07T10:05:14;93121.28;;;26.04;33.93
15568;BME280;7885;42.596;23.044;2023-05-07T10:07:41;93137.69;;;26.37;34.05
15568;BME280;7885;42.596;23.044;2023-05-07T10:10:08;93138.16;;;26.55;33.18
15568;BME280;7885;42.596;23.044;2023-05-07T10:15:58;93136.44;;;26.84;32.12
15568;BME280;7885;42.596;23.044;2023-05-07T10:18:26;93123.69;;;27.03;31.30
15568;BME280;7885;42.596;23.044;2023-05-07T10:21:01;93130.66;;;27.19;30.82
15568;BME280;7885;42.596;23.044;2023-05-07T10:23:29;93126.88;;;27.47;31.14
15568;BME280;7885;42.596;23.044;2023-05-07T10:25:59;93122.31;;;27.55;32.15
15568;BME280;7885;42.596;23.044;2023-05-07T10:28:29;93119.69;;;27.41;31.11
15568;BME280;7885;42.596;23.044;2023-05-07T10:31:08;93122.50;;;27.15;30.70
15568;BME280;7885;42.596;23.044;2023-05-07T10:33:37;93116.47;;;27.22;30.83
15568;BME280;7885;42.596;23.044;2023-05-07T10:36:06;93112.34;;;27.18;31.15
15568;BME280;7885;42.596;23.044;2023-05-07T10:38:33;93117.09;;;27.37;30.32
15568;BME280;7885;42.596;23.044;2023-05-07T10:41:00;93115.09;;;27.43;31.63
15568;BME280;7885;42.596;23.044;2023-05-07T10:43:39;93114.56;;;27.76;30.98
15568;BME280;7885;42.596;23.044;2023-05-07T10:46:16;93112.19;;;27.58;30.70
15568;BME280;7885;42.596;23.044;2023-05-07T10:49:08;93106.38;;;27.62;29.40
15568;BME280;7885;42.596;23.044;2023-05-07T10:51:36;93113.63;;;27.90;30.00
15568;BME280;7885;42.596;23.044;2023-05-07T10:57:34;93096.75;;;28.16;29.03
15568;BME280;7885;42.596;23.044;2023-05-07T11:00:03;93101.75;;;28.01;27.87
15568;BME280;7885;42.596;23.044;2023-05-07T11:03:07;93107.09;;;28.04;28.67
15568;BME280;7885;42.596;23.044;2023-05-07T11:05:35;93106.94;;;28.19;29.21
15568;BME280;7885;42.596;23.044;2023-05-07T11:08:02;93090.69;;;28.23;29.96
15568;BME280;7885;42.596;23.044;2023-05-07T11:10:48;93083.09;;;27.87;29.43
15568;BME280;7885;42.596;23.044;2023-05-07T11:13:15;93099.19;;;27.55;28.77
15568;BME280;7885;42.596;23.044;2023-05-07T11:15:43;93095.09;;;27.19;29.85
15568;BME280;7885;42.596;23.044;2023-05-07T11:18:13;93093.41;;;26.76;29.41
15568;BME280;7885;42.596;23.044;2023-05-07T11:20:48;93079.19;;;26.02;29.54
15568;BME280;7885;42.596;23.044;2023-05-07T11:23:55;93089.00;;;25.42;30.13
15568;BME280;7885;42.596;23.044;2023-05-07T11:26:26;93090.25;;;25.56;30.69
15568;BME280;7885;42.596;23.044;2023-05-07T11:28:53;93090.47;;;25.73;31.03
15568;BME280;7885;42.596;23.044;2023-05-07T11:31:22;93085.53;;;25.82;31.10
15568;BME280;7885;42.596;23.044;2023-05-07T11:33:52;93080.78;;;26.08;31.47
15568;BME280;7885;42.596;23.044;2023-05-07T11:36:21;93084.34;;;26.29;32.18
15568;BME280;7885;42.596;23.044;2023-05-07T11:38:47;93085.94;;;26.61;32.40
15568;BME280;7885;42.596;23.044;2023-05-07T11:41:16;93078.28;;;26.56;31.36
15568;BME280;7885;42.596;23.044;2023-05-07T11:43:54;93080.31;;;26.82;32.27
15568;BME280;7885;42.596;23.044;2023-05-07T11:46:22;93083.59;;;27.06;31.71
15568;BME280;7885;42.596;23.044;2023-05-07T11:48:49;93086.66;;;27.45;31.52
15568;BME280;7885;42.596;23.044;2023-05-07T11:51:21;93086.84;;;27.73;30.25
15568;BME280;7885;42.596;23.044;2023-05-07T11:53:49;93081.72;;;27.66;28.74
15568;BME280;7885;42.596;23.044;2023-05-07T11:56:17;93080.38;;;27.55;29.48
15568;BME280;7885;42.596;23.044;2023-05-07T11:58:45;93082.75;;;27.00;29.94
15568;BME280;7885;42.596;23.044;2023-05-07T12:01:13;93079.16;;;26.68;30.03
15568;BME280;7885;42.596;23.044;2023-05-07T12:03:41;93064.94;;;26.40;32.01
15568;BME280;7885;42.596;23.044;2023-05-07T12:06:09;93067.53;;;26.75;31.28
15568;BME280;7885;42.596;23.044;2023-05-07T12:08:38;93064.91;;;26.92;30.81
15568;BME280;7885;42.596;23.044;2023-05-07T12:11:08;93059.19;;;27.06;30.96
15568;BME280;7885;42.596;23.044;2023-05-07T12:13:37;93052.19;;;27.22;29.22
15568;BME280;7885;42.596;23.044;2023-05-07T12:16:05;93059.59;;;27.31;30.86
15568;BME280;7885;42.596;23.044;2023-05-07T12:18:33;93053.44;;;27.21;29.59
15568;BME280;7885;42.596;23.044;2023-05-07T12:21:00;93053.91;;;27.14;29.66
15568;BME280;7885;42.596;23.044;2023-05-07T12:23:27;93049.38;;;26.85;29.92
15568;BME280;7885;42.596;23.044;2023-05-07T12:26:14;93053.19;;;26.88;31.07
15568;BME280;7885;42.596;23.044;2023-05-07T12:28:41;93051.09;;;27.08;32.76
15568;BME280;7885;42.596;23.044;2023-05-07T12:31:08;93048.00;;;27.06;31.82
15568;BME280;7885;42.596;23.044;2023-05-07T12:33:35;93039.59;;;27.01;30.82
15568;BME280;7885;42.596;23.044;2023-05-07T12:36:05;93036.06;;;26.75;31.96
15568;BME280;7885;42.596;23.044;2023-05-07T12:38:36;93039.94;;;26.31;31.06
15568;BME280;7885;42.596;23.044;2023-05-07T12:41:04;93030.22;;;26.21;30.31
15568;BME280;7885;42.596;23.044;2023-05-07T12:43:33;93029.06;;;25.87;33.03
15568;BME280;7885;42.596;23.044;2023-05-07T12:46:01;93031.03;;;25.26;32.34
15568;BME280;7885;42.596;23.044;2023-05-07T12:48:28;93022.78;;;25.17;32.82
15568;BME280;7885;42.596;23.044;2023-05-07T12:50:56;93019.28;;;25.02;35.44
15568;BME280;7885;42.596;23.044;2023-05-07T12:53:24;93022.59;;;24.56;36.27
15568;BME280;7885;42.596;23.044;2023-05-07T12:55:52;93014.25;;;24.56;37.81
15568;BME280;7885;42.596;23.044;2023-05-07T12:58:20;93003.88;;;24.72;34.23
15568;BME280;7885;42.596;23.044;2023-05-07T13:00:50;93013.75;;;24.87;37.12
15568;BME280;7885;42.596;23.044;2023-05-07T13:03:25;93004.19;;;25.08;35.89
15568;BME280;7885;42.596;23.044;2023-05-07T13:05:53;92991.31;;;25.11;33.49
15568;BME280;7885;42.596;23.044;2023-05-07T13:08:28;92985.97;;;24.93;33.22
15568;BME280;7885;42.596;23.044;2023-05-07T13:10:55;92997.09;;;24.93;33.92
15568;BME280;7885;42.596;23.044;2023-05-07T13:13:21;92991.91;;;25.00;36.51